createdAt,value
2018-10-15T00:01:55.863Z,11.93
2018-10-15T00:04:25.232Z,14.67
2018-10-15T00:06:54.126Z,11.83
2018-10-15T00:09:23.488Z,14.43
2018-10-15T00:11:52.125Z,15.80
2018-10-15T00:14:21.515Z,13.63
2018-10-15T00:16:50.567Z,11.80
2018-10-15T00:19:19.427Z,11.10
2018-10-15T00:21:48.685Z,12.43
2018-10-15T00:24:18.015Z,10.20
2018-10-15T00:26:47.606Z,10.43
2018-10-15T00:29:16.963Z,12.57
2018-10-15T00:31:46.401Z,12.40
2018-10-15T00:34:15.632Z,12.70
2018-10-15T00:36:45.469Z,10.10
2018-10-15T00:39:14.952Z,14.07
2018-10-15T00:41:44.833Z,13.40
2018-10-15T00:44:13.700Z,9.60
2018-10-15T00:46:42.570Z,13.77
2018-10-15T00:49:11.935Z,9.93
2018-10-15T00:51:41.939Z,13.03
2018-10-15T00:54:11.239Z,9.67
2018-10-15T00:56:40.162Z,11.13
2018-10-15T00:59:09.758Z,10.27
2018-10-15T01:01:38.903Z,10.20
2018-10-15T01:04:07.665Z,9.47
2018-10-15T01:06:36.699Z,9.83
2018-10-15T01:09:07.197Z,10.37
2018-10-15T01:11:36.840Z,9.90
2018-10-15T01:14:06.231Z,11.07
2018-10-15T01:16:36.240Z,14.43
2018-10-15T01:19:05.268Z,10.07
2018-10-15T01:21:34.976Z,10.40
2018-10-15T01:24:04.307Z,9.10
2018-10-15T01:26:38.866Z,10.23
2018-10-15T01:29:08.075Z,9.10
2018-10-15T01:31:38.926Z,9.87
2018-10-15T01:34:08.460Z,10.73
2018-10-15T01:36:38.570Z,11.57
2018-10-15T01:39:11.584Z,13.67
2018-10-15T01:41:41.440Z,11.10
2018-10-15T01:44:10.642Z,11.40
2018-10-15T01:46:39.740Z,11.97
2018-10-15T01:49:09.322Z,12.00
2018-10-15T01:51:38.747Z,11.67
2018-10-15T01:54:07.563Z,11.47
2018-10-15T01:56:37.270Z,13.23
2018-10-15T01:59:07.185Z,12.07
2018-10-15T02:01:36.442Z,12.87
2018-10-15T02:04:05.434Z,10.67
2018-10-15T02:06:34.616Z,10.07
2018-10-15T02:09:05.202Z,13.57
2018-10-15T02:11:35.226Z,10.77
2018-10-15T02:14:04.513Z,12.73
2018-10-15T02:16:33.900Z,13.00
2018-10-15T02:19:03.204Z,13.93
2018-10-15T02:21:32.766Z,11.50
2018-10-15T02:24:02.565Z,10.97
2018-10-15T02:26:31.908Z,12.27
2018-10-15T02:29:01.307Z,10.53
2018-10-15T02:31:30.423Z,12.07
2018-10-15T02:33:59.962Z,11.20
2018-10-15T02:36:29.338Z,9.97
2018-10-15T02:38:58.760Z,9.47
2018-10-15T02:41:28.983Z,10.10
2018-10-15T02:43:58.244Z,10.47
2018-10-15T02:46:27.820Z,9.17
2018-10-15T02:48:57.196Z,13.40
2018-10-15T02:51:26.254Z,9.27
2018-10-15T02:53:55.695Z,14.50
2018-10-15T02:56:25.097Z,10.27
2018-10-15T02:58:55.239Z,9.80
2018-10-15T03:01:25.042Z,11.23
2018-10-15T03:03:54.228Z,10.57
2018-10-15T03:06:24.177Z,9.00
2018-10-15T03:08:53.608Z,9.93
2018-10-15T03:11:23.357Z,10.23
2018-10-15T03:13:52.752Z,8.90
2018-10-15T03:16:22.130Z,9.53
2018-10-15T03:18:51.530Z,12.23
2018-10-15T03:21:20.812Z,11.80
2018-10-15T03:23:50.946Z,11.63
2018-10-15T03:26:20.467Z,11.27
2018-10-15T03:28:49.671Z,11.17
2018-10-15T03:31:19.301Z,9.83
2018-10-15T03:33:49.588Z,9.07
2018-10-15T03:36:20.672Z,9.90
2018-10-15T03:38:50.071Z,10.03
2018-10-15T03:41:18.794Z,11.67
2018-10-15T03:43:48.444Z,12.83
2018-10-15T03:46:18.796Z,11.53
2018-10-15T03:48:47.890Z,9.90
2018-10-15T03:51:17.703Z,9.47
2018-10-15T03:53:47.691Z,12.37
2018-10-15T03:56:31.866Z,10.07
2018-10-15T03:59:01.947Z,12.87
2018-10-15T04:01:30.996Z,11.20
2018-10-15T04:04:01.059Z,13.00
2018-10-15T04:06:30.760Z,11.27
2018-10-15T04:09:00.079Z,11.07
2018-10-15T04:11:28.906Z,13.93
2018-10-15T04:13:57.944Z,12.47
2018-10-15T04:16:27.817Z,9.90
2018-10-15T04:18:57.826Z,16.07
2018-10-15T04:21:27.556Z,13.20
2018-10-15T04:23:57.653Z,12.23
2018-10-15T04:26:28.177Z,11.60
2018-10-15T04:28:56.964Z,11.17
2018-10-15T04:31:25.843Z,10.00
2018-10-15T04:33:55.607Z,9.17
2018-10-15T04:36:25.011Z,13.40
2018-10-15T04:38:53.800Z,14.73
2018-10-15T04:41:23.147Z,13.13
2018-10-15T04:43:51.961Z,26.70
2018-10-15T04:46:21.546Z,19.20
2018-10-15T04:48:51.645Z,15.27
2018-10-15T04:51:21.069Z,14.33
2018-10-15T04:53:50.997Z,10.40
2018-10-15T04:56:20.943Z,12.10
2018-10-15T04:58:50.215Z,15.07
2018-10-15T05:01:19.187Z,12.33
2018-10-15T05:03:48.413Z,11.50
2018-10-15T05:06:17.904Z,12.10
2018-10-15T05:08:46.680Z,11.33
2018-10-15T05:11:16.596Z,10.27
2018-10-15T05:13:45.557Z,9.93
2018-10-15T05:16:14.788Z,9.63
2018-10-15T05:18:44.043Z,8.80
2018-10-15T05:21:13.479Z,10.87
2018-10-15T05:23:42.404Z,14.17
2018-10-15T05:26:11.800Z,10.23
2018-10-15T05:28:40.904Z,10.77
2018-10-15T05:31:10.456Z,12.60
2018-10-15T05:33:39.695Z,9.97
2018-10-15T05:36:09.036Z,11.33
2018-10-15T05:38:38.471Z,16.87
2018-10-15T05:41:08.361Z,10.47
2018-10-15T05:43:37.637Z,14.53
2018-10-15T05:46:07.136Z,12.03
2018-10-15T05:48:37.765Z,12.57
2018-10-15T05:51:07.359Z,13.87
2018-10-15T05:53:37.085Z,13.03
2018-10-15T05:56:06.631Z,13.07
2018-10-15T05:58:36.932Z,11.40
2018-10-15T06:01:06.816Z,13.37
2018-10-15T06:03:36.796Z,9.90
2018-10-15T06:06:06.425Z,16.90
2018-10-15T06:08:36.692Z,10.00
2018-10-15T06:11:06.291Z,12.50
2018-10-15T06:13:36.828Z,9.63
2018-10-15T06:16:06.163Z,13.77
2018-10-15T06:18:36.212Z,15.90
2018-10-15T06:21:07.245Z,12.47
2018-10-15T06:23:37.058Z,10.73
2018-10-15T06:26:06.732Z,18.13
2018-10-15T06:28:36.244Z,12.63
2018-10-15T06:31:06.085Z,16.13
2018-10-15T06:33:35.662Z,12.77
2018-10-15T06:36:05.486Z,13.23
2018-10-15T06:38:35.271Z,10.07
2018-10-15T06:41:05.289Z,11.53
2018-10-15T06:43:35.126Z,12.23
2018-10-15T06:46:05.025Z,10.30
2018-10-15T06:48:34.347Z,12.33
2018-10-15T06:51:04.594Z,14.73
2018-10-15T06:53:33.797Z,13.30
2018-10-15T06:56:03.037Z,16.73
2018-10-15T06:58:32.574Z,15.33
2018-10-15T07:01:02.308Z,20.37
2018-10-15T07:03:33.037Z,14.10
2018-10-15T07:06:02.358Z,15.73
2018-10-15T07:08:32.403Z,13.20
2018-10-15T07:11:01.930Z,14.17
2018-10-15T07:13:31.318Z,22.10
2018-10-15T07:16:01.133Z,12.00
2018-10-15T07:18:31.716Z,13.50
2018-10-15T07:21:02.529Z,16.57
2018-10-15T07:23:32.187Z,14.43
2018-10-15T07:26:02.091Z,16.80
2018-10-15T07:28:31.942Z,16.30
2018-10-15T07:31:01.806Z,17.37
2018-10-15T07:33:31.261Z,12.63
2018-10-15T07:36:02.317Z,16.97
2018-10-15T07:38:32.814Z,15.13
2018-10-15T07:41:02.210Z,12.77
2018-10-15T07:43:31.719Z,10.70
2018-10-15T07:46:02.123Z,16.50
2018-10-15T07:48:31.001Z,16.93
2018-10-15T07:51:01.803Z,14.03
2018-10-15T07:53:31.691Z,19.13
2018-10-15T07:56:00.692Z,11.00
2018-10-15T07:58:30.628Z,13.13
2018-10-15T08:01:00.626Z,12.03
2018-10-15T08:03:30.966Z,10.03
2018-10-15T08:06:00.336Z,14.07
2018-10-15T08:08:30.782Z,10.57
2018-10-15T08:10:59.594Z,25.93
2018-10-15T08:13:29.363Z,17.07
2018-10-15T08:15:58.666Z,17.80
2018-10-15T08:18:28.083Z,22.83
2018-10-15T08:20:57.817Z,15.97
2018-10-15T08:23:27.078Z,20.60
2018-10-15T08:25:57.511Z,17.17
2018-10-15T08:28:27.712Z,15.20
2018-10-15T08:30:58.192Z,14.13
2018-10-15T08:33:27.984Z,19.43
2018-10-15T08:35:57.572Z,11.60
2018-10-15T08:38:28.330Z,11.30
2018-10-15T08:40:57.875Z,11.87
2018-10-15T08:43:27.513Z,16.33
2018-10-15T08:45:57.853Z,12.27
2018-10-15T08:48:26.788Z,12.30
2018-10-15T08:50:57.374Z,12.13
2018-10-15T08:53:26.448Z,15.27
2018-10-15T08:55:57.523Z,16.77
2018-10-15T08:58:27.325Z,10.47
2018-10-15T09:00:57.370Z,16.57
2018-10-15T09:03:27.178Z,12.50
2018-10-15T09:05:56.880Z,15.00
2018-10-15T09:08:26.496Z,10.23
2018-10-15T09:10:57.947Z,14.90
2018-10-15T09:13:28.708Z,14.97
2018-10-15T09:15:58.260Z,10.20
2018-10-15T09:18:27.465Z,15.90
2018-10-15T09:20:59.530Z,10.67
2018-10-15T09:23:29.861Z,13.87
2018-10-15T09:26:00.449Z,14.87
2018-10-15T09:28:30.713Z,34.07
2018-10-15T09:31:02.267Z,33.47
2018-10-15T09:33:32.387Z,30.77
2018-10-15T09:36:02.782Z,26.87
2018-10-15T09:38:32.603Z,27.87
2018-10-15T09:41:03.031Z,28.47
2018-10-15T09:43:32.732Z,35.83
2018-10-15T09:46:02.241Z,16.20
2018-10-15T09:48:31.682Z,17.63
2018-10-15T09:51:01.849Z,19.23
2018-10-15T09:53:31.535Z,15.73
2018-10-15T09:56:01.781Z,10.57
2018-10-15T09:58:31.681Z,10.27
2018-10-15T10:01:07.909Z,9.27
2018-10-15T10:03:37.416Z,6.10
2018-10-15T10:06:07.638Z,10.57
2018-10-15T10:08:36.872Z,7.40
2018-10-15T10:11:06.175Z,5.17
2018-10-15T10:13:36.787Z,9.57
2018-10-15T10:16:06.273Z,6.70
2018-10-15T10:18:35.983Z,6.13
2018-10-15T10:21:06.558Z,7.03
2018-10-15T10:23:35.897Z,6.57
2018-10-15T10:26:05.230Z,11.87
2018-10-15T10:28:34.783Z,8.40
2018-10-15T10:31:04.865Z,7.40
2018-10-15T10:34:21.329Z,14.03
2018-10-15T10:37:00.811Z,6.47
2018-10-15T10:39:30.375Z,5.07
2018-10-15T10:41:59.154Z,4.60
2018-10-15T10:44:29.283Z,4.10
2018-10-15T10:46:58.534Z,5.37
2018-10-15T10:49:28.548Z,8.83
2018-10-15T10:51:58.681Z,6.33
2018-10-15T10:54:27.565Z,8.43
2018-10-15T10:56:57.061Z,6.37
2018-10-15T10:59:26.498Z,6.37
2018-10-15T11:01:55.473Z,9.23
2018-10-15T11:04:25.465Z,9.23
2018-10-15T11:06:55.402Z,9.77
2018-10-15T11:09:24.609Z,5.63
2018-10-15T11:11:54.391Z,13.70
2018-10-15T11:14:23.056Z,5.87
2018-10-15T11:16:52.218Z,9.63
2018-10-15T11:19:22.779Z,9.57
2018-10-15T11:21:51.953Z,11.40
2018-10-15T11:24:21.578Z,5.63
2018-10-15T11:26:51.429Z,9.77
2018-10-15T11:29:21.488Z,10.73
2018-10-15T11:31:51.281Z,8.07
2018-10-15T11:34:20.653Z,8.40
2018-10-15T11:36:51.239Z,7.67
2018-10-15T11:39:20.417Z,5.57
2018-10-15T11:41:51.024Z,6.47
2018-10-15T11:44:21.472Z,7.60
2018-10-15T11:46:51.699Z,7.63
2018-10-15T11:49:20.931Z,7.93
2018-10-15T11:51:50.848Z,5.60
2018-10-15T11:54:20.876Z,5.87
2018-10-15T11:56:51.204Z,5.03
2018-10-15T11:59:20.887Z,5.50
2018-10-15T12:01:49.851Z,7.03
2018-10-15T12:04:18.952Z,5.30
2018-10-15T12:06:48.329Z,4.80
2018-10-15T12:09:18.098Z,6.73
2018-10-15T12:11:47.500Z,5.27
2018-10-15T12:14:16.731Z,8.40
2018-10-15T12:16:46.603Z,6.80
2018-10-15T12:19:16.546Z,8.53
2018-10-15T12:21:45.408Z,5.17
2018-10-15T12:24:14.832Z,6.43
2018-10-15T12:26:43.672Z,5.13
2018-10-15T12:29:13.814Z,5.07
2018-10-15T12:31:43.660Z,4.07
2018-10-15T12:34:14.912Z,6.10
2018-10-15T12:36:44.168Z,4.00
2018-10-15T12:39:13.533Z,3.93
2018-10-15T12:41:44.562Z,7.10
2018-10-15T12:44:14.153Z,6.43
2018-10-15T12:46:45.113Z,4.20
2018-10-15T12:49:14.716Z,4.00
2018-10-15T12:51:44.204Z,4.33
2018-10-15T12:54:13.256Z,5.97
2018-10-15T12:56:44.304Z,4.03
2018-10-15T12:59:14.027Z,8.57
2018-10-15T13:01:43.435Z,3.90
2018-10-15T13:04:12.942Z,4.07
2018-10-15T13:06:42.580Z,6.93
2018-10-15T13:09:13.450Z,5.90
2018-10-15T13:11:42.734Z,9.77
2018-10-15T13:14:12.179Z,5.53
2018-10-15T13:16:41.815Z,7.03
2018-10-15T13:19:11.618Z,5.37
2018-10-15T13:21:40.486Z,4.47
2018-10-15T13:24:09.893Z,6.23
2018-10-15T13:26:39.119Z,5.60
2018-10-15T13:29:08.253Z,5.10
2018-10-15T13:31:38.452Z,4.77
2018-10-15T13:34:07.638Z,4.27
2018-10-15T13:36:37.203Z,4.40
2018-10-15T13:39:08.184Z,3.80
2018-10-15T13:41:37.395Z,4.43
2018-10-15T13:44:12.015Z,4.73
2018-10-15T13:46:41.432Z,4.93
2018-10-15T13:49:10.383Z,4.10
2018-10-15T13:51:39.706Z,8.60
2018-10-15T13:54:09.394Z,5.27
2018-10-15T13:56:40.023Z,4.27
2018-10-15T13:59:09.527Z,5.20
2018-10-15T14:01:39.012Z,4.17
2018-10-15T14:04:08.999Z,3.77
2018-10-15T14:06:38.537Z,5.40
2018-10-15T14:09:09.534Z,4.77
2018-10-15T14:11:39.703Z,6.60
2018-10-15T14:14:09.872Z,4.00
2018-10-15T14:16:40.589Z,4.43
2018-10-15T14:19:11.008Z,4.50
2018-10-15T14:21:41.074Z,4.30
2018-10-15T14:24:10.824Z,4.27
2018-10-15T14:26:40.625Z,7.00
2018-10-15T14:29:10.620Z,7.07
2018-10-15T14:31:39.265Z,4.63
2018-10-15T14:34:09.080Z,4.30
2018-10-15T14:36:39.101Z,8.07
2018-10-15T14:39:09.925Z,4.77
2018-10-15T14:41:39.407Z,5.03
2018-10-15T14:44:08.566Z,5.77
2018-10-15T14:46:38.267Z,4.83
2018-10-15T14:49:07.898Z,4.67
2018-10-15T14:51:36.745Z,5.00
2018-10-15T14:54:07.353Z,5.53
2018-10-15T14:56:36.648Z,5.57
2018-10-15T14:59:06.798Z,6.67
2018-10-15T15:01:36.877Z,4.73
2018-10-15T15:04:07.103Z,5.07
2018-10-15T15:06:38.552Z,5.47
2018-10-15T15:09:09.557Z,9.33
2018-10-15T15:11:49.402Z,5.60
2018-10-15T15:14:20.541Z,7.77
2018-10-15T15:16:50.727Z,7.97
2018-10-15T15:19:21.077Z,4.47
2018-10-15T15:21:50.757Z,4.97
2018-10-15T15:24:20.392Z,5.53
2018-10-15T15:26:49.756Z,5.73
2018-10-15T15:29:20.183Z,4.77
2018-10-15T15:31:49.854Z,7.20
2018-10-15T15:34:20.156Z,4.90
2018-10-15T15:36:49.283Z,6.60
2018-10-15T15:39:19.600Z,6.37
2018-10-15T15:41:48.326Z,4.33
2018-10-15T15:44:17.435Z,4.70
2018-10-15T15:46:46.329Z,4.70
2018-10-15T15:49:15.331Z,11.63
2018-10-15T15:51:45.149Z,6.83
2018-10-15T15:54:13.774Z,4.80
2018-10-15T15:56:43.751Z,5.23
2018-10-15T15:59:13.308Z,5.87
2018-10-15T16:01:42.366Z,5.90
2018-10-15T16:04:11.748Z,4.90
2018-10-15T16:06:42.016Z,6.97
2018-10-15T16:09:15.063Z,4.53
2018-10-15T16:11:44.754Z,4.73
2018-10-15T16:14:14.872Z,5.17
2018-10-15T16:16:45.916Z,5.03
2018-10-15T16:19:15.863Z,7.90
2018-10-15T16:21:45.789Z,6.13
2018-10-15T16:24:15.350Z,5.80
2018-10-15T16:26:44.457Z,9.87
2018-10-15T16:29:14.528Z,5.10
2018-10-15T16:31:43.792Z,7.53
2018-10-15T16:34:13.552Z,6.27
2018-10-15T16:36:43.718Z,5.30
2018-10-15T16:39:14.188Z,5.53
2018-10-15T16:41:44.092Z,6.77
2018-10-15T16:44:13.190Z,8.87
2018-10-15T16:46:43.192Z,5.67
2018-10-15T16:49:13.258Z,5.87
2018-10-15T16:51:43.126Z,5.47
2018-10-15T16:54:13.627Z,6.77
2018-10-15T16:56:43.334Z,5.63
2018-10-15T16:59:13.288Z,6.77
2018-10-15T17:01:41.953Z,7.37
2018-10-15T17:04:11.645Z,6.80
2018-10-15T17:06:41.683Z,9.67
2018-10-15T17:09:14.805Z,14.00
2018-10-15T17:11:44.156Z,10.00
2018-10-15T17:14:14.054Z,7.40
2018-10-15T17:16:42.756Z,12.93
2018-10-15T17:19:13.199Z,36.63
2018-10-15T17:21:42.808Z,35.60
2018-10-15T17:24:12.434Z,24.83
2018-10-15T17:26:41.360Z,22.90
2018-10-15T17:29:11.266Z,33.93
2018-10-15T17:31:41.038Z,32.50
2018-10-15T17:34:10.773Z,20.80
2018-10-15T17:36:40.152Z,11.93
2018-10-15T17:39:11.308Z,12.50
2018-10-15T17:41:41.277Z,11.23
2018-10-15T17:44:10.372Z,22.07
2018-10-15T17:46:39.941Z,16.20
2018-10-15T17:49:09.574Z,13.27
2018-10-15T17:51:38.331Z,9.23
2018-10-15T17:54:07.806Z,10.90
2018-10-15T17:56:37.025Z,7.10
2018-10-15T17:59:07.842Z,11.27
2018-10-15T18:01:37.864Z,11.50
2018-10-15T18:04:08.618Z,9.73
2018-10-15T18:06:38.575Z,13.37
2018-10-15T18:09:10.281Z,11.90
2018-10-15T18:11:39.486Z,13.57
2018-10-15T18:14:08.867Z,10.03
2018-10-15T18:16:38.192Z,12.73
2018-10-15T18:19:08.261Z,10.47
2018-10-15T18:21:37.975Z,13.30
2018-10-15T18:24:07.327Z,12.90
2018-10-15T18:26:36.980Z,16.37
2018-10-15T18:29:07.036Z,12.20
2018-10-15T18:31:37.871Z,13.03
2018-10-15T18:34:07.605Z,13.17
2018-10-15T18:36:37.429Z,11.10
2018-10-15T18:39:10.486Z,11.77
2018-10-15T18:41:39.705Z,9.50
2018-10-15T18:44:10.177Z,10.53
2018-10-15T18:46:39.821Z,13.43
2018-10-15T18:49:09.592Z,11.10
2018-10-15T18:51:39.142Z,11.23
2018-10-15T18:54:08.692Z,8.77
2018-10-15T18:56:38.316Z,9.27
2018-10-15T18:59:08.439Z,13.13
2018-10-15T19:01:37.743Z,10.40
2018-10-15T19:04:07.527Z,9.70
2018-10-15T19:06:37.599Z,11.20
2018-10-15T19:09:09.151Z,10.57
2018-10-15T19:11:38.673Z,10.43
2018-10-15T19:14:09.303Z,9.03
2018-10-15T19:16:39.301Z,8.57
2018-10-15T19:19:09.411Z,8.20
2018-10-15T19:21:38.428Z,12.83
2018-10-15T19:24:08.569Z,8.87
2018-10-15T19:26:39.185Z,9.57
2018-10-15T19:29:08.923Z,14.07
2018-10-15T19:31:39.116Z,10.30
2018-10-15T19:34:08.491Z,8.43
2018-10-15T19:36:38.024Z,9.73
2018-10-15T19:39:10.259Z,12.07
2018-10-15T19:41:40.387Z,8.83
2018-10-15T19:44:10.337Z,10.37
2018-10-15T19:46:40.868Z,11.67
2018-10-15T19:49:10.173Z,11.37
2018-10-15T19:51:40.199Z,11.43
2018-10-15T19:54:09.276Z,9.10
2018-10-15T19:56:39.543Z,10.53
2018-10-15T19:59:08.163Z,15.20
2018-10-15T20:01:38.069Z,16.10
2018-10-15T20:04:07.819Z,14.83
2018-10-15T20:06:37.483Z,12.30
2018-10-15T20:09:10.859Z,10.60
2018-10-15T20:11:49.738Z,10.70
2018-10-15T20:14:19.834Z,12.07
2018-10-15T20:16:49.772Z,11.37
2018-10-15T20:19:20.508Z,11.13
2018-10-15T20:21:49.711Z,14.20
2018-10-15T20:24:18.671Z,10.60
2018-10-15T20:26:47.906Z,13.33
2018-10-15T20:29:17.412Z,9.67
2018-10-15T20:31:46.752Z,12.13
2018-10-15T20:34:16.385Z,10.83
2018-10-15T20:36:45.773Z,9.83
2018-10-15T20:39:15.887Z,10.77
2018-10-15T20:41:45.475Z,11.07
2018-10-15T20:44:15.269Z,11.90
2018-10-15T20:46:45.114Z,11.93
2018-10-15T20:49:15.105Z,9.40
2018-10-15T20:51:44.875Z,10.80
2018-10-15T20:54:14.576Z,10.87
2018-10-15T20:56:44.680Z,11.23
2018-10-15T20:59:14.757Z,12.30
2018-10-15T21:01:44.110Z,12.87
2018-10-15T21:04:14.200Z,9.23
2018-10-15T21:06:43.796Z,9.60
2018-10-15T21:09:13.303Z,9.57
2018-10-15T21:11:42.893Z,10.57
2018-10-15T21:14:12.755Z,10.53
2018-10-15T21:16:42.372Z,10.60
2018-10-15T21:19:12.961Z,9.10
2018-10-15T21:21:42.540Z,8.47
2018-10-15T21:24:12.319Z,10.03
2018-10-15T21:26:41.943Z,10.67
2018-10-15T21:29:12.114Z,10.20
2018-10-15T21:31:41.100Z,12.97
2018-10-15T21:34:10.585Z,10.20
2018-10-15T21:36:40.705Z,12.37
2018-10-15T21:39:10.854Z,10.63
2018-10-15T21:41:40.071Z,9.63
2018-10-15T21:44:09.826Z,9.40
2018-10-15T21:46:39.673Z,15.77
2018-10-15T21:49:09.997Z,10.63
2018-10-15T21:51:39.699Z,12.03
2018-10-15T21:54:09.959Z,9.63
2018-10-15T21:56:39.457Z,13.80
2018-10-15T21:59:08.756Z,11.20
2018-10-15T22:01:38.473Z,9.53
2018-10-15T22:04:07.463Z,9.97
2018-10-15T22:06:37.049Z,11.30
2018-10-15T22:09:07.455Z,10.20
2018-10-15T22:11:36.468Z,10.93
2018-10-15T22:14:05.974Z,13.53
2018-10-15T22:16:35.866Z,10.37
2018-10-15T22:19:05.158Z,12.23
2018-10-15T22:21:34.493Z,9.33
2018-10-15T22:24:04.887Z,14.47
2018-10-15T22:26:33.893Z,14.57
2018-10-15T22:29:03.857Z,12.87
2018-10-15T22:31:33.908Z,10.30
2018-10-15T22:34:02.865Z,10.17
2018-10-15T22:36:32.517Z,11.80
2018-10-15T22:39:02.286Z,9.63
2018-10-15T22:41:32.452Z,10.00
2018-10-15T22:44:01.731Z,10.57
2018-10-15T22:46:31.326Z,11.30
2018-10-15T22:49:00.917Z,13.03
2018-10-15T22:51:30.174Z,10.33
2018-10-15T22:53:59.726Z,10.23
2018-10-15T22:56:28.976Z,8.97
2018-10-15T22:58:59.091Z,11.43
2018-10-15T23:01:28.891Z,9.50
2018-10-15T23:03:58.611Z,8.70
2018-10-15T23:06:28.526Z,9.67
2018-10-15T23:08:57.622Z,9.83
2018-10-15T23:11:27.139Z,10.23
2018-10-15T23:13:56.137Z,11.13
2018-10-15T23:16:25.883Z,10.27
2018-10-15T23:18:54.724Z,15.50
2018-10-15T23:21:24.857Z,12.00
2018-10-15T23:23:53.470Z,11.57
2018-10-15T23:26:23.912Z,10.37
2018-10-15T23:28:53.240Z,10.10
2018-10-15T23:31:22.676Z,10.17
2018-10-15T23:33:52.387Z,9.73
2018-10-15T23:36:21.518Z,9.80
2018-10-15T23:38:50.580Z,11.07
2018-10-15T23:41:20.533Z,10.10
2018-10-15T23:43:50.007Z,9.10
2018-10-15T23:46:19.337Z,9.53
2018-10-15T23:48:49.013Z,11.33
2018-10-15T23:51:19.108Z,9.47
2018-10-15T23:53:48.373Z,10.10
2018-10-15T23:56:17.466Z,9.90
2018-10-15T23:58:47.344Z,9.77
